createdAt,value
2018-10-17T00:00:42.921Z,97.46
2018-10-17T00:01:43.009Z,97.27
2018-10-17T00:02:43.103Z,97.56
2018-10-17T00:03:43.187Z,97.36
2018-10-17T00:04:43.280Z,97.46
2018-10-17T00:05:43.367Z,97.56
2018-10-17T00:06:43.456Z,97.56
2018-10-17T00:07:43.546Z,97.56
2018-10-17T00:08:43.637Z,97.56
2018-10-17T00:09:43.730Z,97.08
2018-10-17T00:10:43.818Z,97.08
2018-10-17T00:11:43.907Z,96.98
2018-10-17T00:12:43.999Z,97.08
2018-10-17T00:13:44.110Z,96.98
2018-10-17T00:14:44.201Z,97.65
2018-10-17T00:15:44.295Z,97.56
2018-10-17T00:16:44.386Z,97.08
2018-10-17T00:17:44.477Z,97.94
2018-10-17T00:18:44.568Z,97.94
2018-10-17T00:19:44.659Z,97.84
2018-10-17T00:20:44.749Z,98.03
2018-10-17T00:21:44.837Z,98.03
2018-10-17T00:22:44.928Z,98.32
2018-10-17T00:23:45.021Z,98.13
2018-10-17T00:24:45.109Z,98.03
2018-10-17T00:25:45.203Z,98.79
2018-10-17T00:26:45.293Z,98.60
2018-10-17T00:27:45.392Z,98.79
2018-10-17T00:28:45.477Z,98.89
2018-10-17T00:29:45.566Z,99.75
2018-10-17T00:30:45.660Z,99.94
2018-10-17T00:31:45.751Z,99.46
2018-10-17T00:32:45.846Z,99.37
2018-10-17T00:33:45.935Z,99.46
2018-10-17T00:34:46.027Z,99.37
2018-10-17T00:35:46.120Z,99.55
2018-10-17T00:36:46.210Z,99.99
2018-10-17T00:37:46.303Z,99.99
2018-10-17T00:38:46.395Z,99.75
2018-10-17T00:39:46.488Z,99.99
2018-10-17T00:40:46.580Z,99.99
2018-10-17T00:41:46.670Z,99.94
2018-10-17T00:42:46.763Z,99.99
2018-10-17T00:43:46.853Z,99.99
2018-10-17T00:44:46.943Z,99.99
2018-10-17T00:45:47.034Z,99.99
2018-10-17T00:46:47.124Z,99.99
2018-10-17T00:47:47.220Z,99.99
2018-10-17T00:48:47.307Z,99.99
2018-10-17T00:49:47.399Z,99.99
2018-10-17T00:50:47.489Z,99.99
2018-10-17T00:51:47.579Z,99.99
2018-10-17T00:52:47.673Z,99.99
2018-10-17T00:53:47.765Z,99.99
2018-10-17T00:54:47.853Z,99.99
2018-10-17T00:55:47.945Z,99.99
2018-10-17T00:56:48.038Z,99.99
2018-10-17T00:57:48.130Z,99.99
2018-10-17T00:58:48.224Z,99.99
2018-10-17T00:59:48.315Z,99.99
2018-10-17T01:00:48.405Z,99.99
2018-10-17T01:01:48.495Z,99.99
2018-10-17T01:02:48.584Z,99.99
2018-10-17T01:03:48.677Z,99.99
2018-10-17T01:04:48.767Z,99.99
2018-10-17T01:05:48.857Z,99.99
2018-10-17T01:06:48.952Z,99.99
2018-10-17T01:07:49.040Z,99.99
2018-10-17T01:08:49.130Z,99.99
2018-10-17T01:09:49.222Z,99.99
2018-10-17T01:10:49.313Z,99.99
2018-10-17T01:11:49.404Z,99.99
2018-10-17T01:12:49.495Z,99.99
2018-10-17T01:13:49.586Z,99.99
2018-10-17T01:14:49.675Z,99.99
2018-10-17T01:15:49.767Z,99.99
2018-10-17T01:16:49.860Z,99.99
2018-10-17T01:17:49.948Z,99.99
2018-10-17T01:18:50.041Z,99.99
2018-10-17T01:19:50.131Z,99.99
2018-10-17T01:20:50.224Z,99.99
2018-10-17T01:21:50.313Z,99.99
2018-10-17T01:22:50.406Z,99.99
2018-10-17T01:23:50.496Z,99.99
2018-10-17T01:25:00.306Z,99.99
2018-10-17T01:25:50.722Z,99.99
2018-10-17T01:26:50.819Z,99.99
2018-10-17T01:27:50.907Z,99.99
2018-10-17T01:28:51.002Z,99.99
2018-10-17T01:29:51.091Z,99.99
2018-10-17T01:30:51.194Z,99.99
2018-10-17T01:31:51.269Z,99.99
2018-10-17T01:32:51.358Z,99.99
2018-10-17T01:33:51.445Z,99.99
2018-10-17T01:34:51.588Z,99.99
2018-10-17T01:35:51.628Z,99.99
2018-10-17T01:36:51.766Z,99.99
2018-10-17T01:37:51.811Z,99.99
2018-10-17T01:38:51.905Z,99.99
2018-10-17T01:39:51.997Z,99.99
2018-10-17T01:40:52.124Z,99.99
2018-10-17T01:41:52.178Z,99.99
2018-10-17T01:42:52.281Z,99.99
2018-10-17T01:43:52.359Z,99.99
2018-10-17T01:44:52.451Z,99.99
2018-10-17T01:45:52.539Z,99.99
2018-10-17T01:46:52.649Z,99.99
2018-10-17T01:47:52.732Z,99.99
2018-10-17T01:48:52.838Z,99.99
2018-10-17T01:49:52.908Z,99.99
2018-10-17T01:50:52.997Z,99.99
2018-10-17T01:51:53.090Z,99.99
2018-10-17T01:52:53.184Z,99.99
2018-10-17T01:53:53.271Z,99.99
2018-10-17T01:54:53.365Z,99.99
2018-10-17T01:55:53.452Z,99.99
2018-10-17T01:56:53.545Z,99.99
2018-10-17T01:57:53.637Z,99.99
2018-10-17T01:58:53.737Z,99.99
2018-10-17T01:59:53.824Z,99.99
2018-10-17T02:00:53.920Z,99.99
2018-10-17T02:01:54.001Z,99.99
2018-10-17T02:02:54.096Z,99.99
2018-10-17T02:03:54.185Z,99.99
2018-10-17T02:04:54.319Z,99.99
2018-10-17T02:05:54.369Z,99.99
2018-10-17T02:06:54.524Z,99.99
2018-10-17T02:07:54.553Z,99.99
2018-10-17T02:08:54.645Z,99.99
2018-10-17T02:09:54.732Z,99.99
2018-10-17T02:10:54.879Z,99.99
2018-10-17T02:11:54.914Z,99.99
2018-10-17T02:12:55.042Z,99.99
2018-10-17T02:13:55.099Z,99.99
2018-10-17T02:14:55.194Z,99.99
2018-10-17T02:15:55.283Z,99.99
2018-10-17T02:16:55.429Z,99.99
2018-10-17T02:17:55.466Z,99.99
2018-10-17T02:18:55.581Z,99.99
2018-10-17T02:19:55.651Z,99.99
2018-10-17T02:20:55.741Z,99.99
2018-10-17T02:21:55.834Z,99.99
2018-10-17T02:22:55.968Z,99.99
2018-10-17T02:23:56.012Z,99.99
2018-10-17T02:24:56.141Z,99.99
2018-10-17T02:25:56.196Z,99.99
2018-10-17T02:26:56.291Z,99.99
2018-10-17T02:27:56.372Z,99.99
2018-10-17T02:28:56.488Z,99.99
2018-10-17T02:29:56.595Z,99.99
2018-10-17T02:30:56.699Z,99.99
2018-10-17T02:31:56.730Z,99.99
2018-10-17T02:32:56.827Z,99.99
2018-10-17T02:33:56.917Z,99.99
2018-10-17T02:34:57.010Z,99.99
2018-10-17T02:35:57.095Z,99.99
2018-10-17T02:36:57.227Z,99.99
2018-10-17T02:37:57.279Z,99.99
2018-10-17T02:38:57.371Z,99.99
2018-10-17T02:39:57.468Z,99.99
2018-10-17T02:40:57.588Z,99.99
2018-10-17T02:41:57.647Z,99.99
2018-10-17T02:42:57.782Z,99.99
2018-10-17T02:43:57.828Z,99.99
2018-10-17T02:44:57.921Z,99.99
2018-10-17T02:45:58.011Z,99.99
2018-10-17T02:46:58.140Z,99.99
2018-10-17T02:47:58.196Z,99.99
2018-10-17T02:48:58.291Z,99.99
2018-10-17T02:49:58.376Z,99.99
2018-10-17T02:50:58.472Z,99.99
2018-10-17T02:51:58.561Z,99.99
2018-10-17T02:52:58.667Z,99.99
2018-10-17T02:53:58.740Z,99.99
2018-10-17T02:54:58.856Z,99.99
2018-10-17T02:55:58.925Z,99.99
2018-10-17T02:56:59.021Z,99.99
2018-10-17T02:57:59.110Z,99.99
2018-10-17T02:58:59.215Z,99.99
2018-10-17T02:59:59.292Z,99.99
2018-10-17T03:00:59.443Z,99.99
2018-10-17T03:01:59.475Z,99.99
2018-10-17T03:02:59.566Z,99.99
2018-10-17T03:03:59.657Z,99.99
2018-10-17T03:04:59.786Z,99.99
2018-10-17T03:05:59.837Z,99.99
2018-10-17T03:06:59.951Z,99.99
2018-10-17T03:08:00.019Z,99.99
2018-10-17T03:09:00.111Z,99.99
2018-10-17T03:10:00.203Z,99.99
2018-10-17T03:11:00.329Z,99.99
2018-10-17T03:12:00.389Z,99.99
2018-10-17T03:13:00.544Z,99.99
2018-10-17T03:14:00.571Z,99.99
2018-10-17T03:15:00.672Z,99.99
2018-10-17T03:16:00.753Z,99.99
2018-10-17T03:17:00.877Z,99.99
2018-10-17T03:18:00.942Z,99.99
2018-10-17T03:19:01.031Z,99.99
2018-10-17T03:20:01.123Z,99.99
2018-10-17T03:21:01.216Z,99.99
2018-10-17T03:22:01.303Z,99.99
2018-10-17T03:23:01.429Z,99.99
2018-10-17T03:24:01.485Z,99.99
2018-10-17T03:25:01.644Z,99.99
2018-10-17T03:26:01.667Z,99.99
2018-10-17T03:27:01.763Z,99.99
2018-10-17T03:28:02.000Z,99.99
2018-10-17T03:29:01.989Z,99.99
2018-10-17T03:30:02.042Z,99.99
2018-10-17T03:31:02.233Z,99.99
2018-10-17T03:32:02.220Z,99.99
2018-10-17T03:33:02.310Z,99.99
2018-10-17T03:34:02.402Z,99.99
2018-10-17T03:35:02.542Z,99.99
2018-10-17T03:36:02.651Z,99.99
2018-10-17T03:37:02.733Z,99.99
2018-10-17T03:38:02.768Z,99.99
2018-10-17T03:39:02.859Z,99.99
2018-10-17T03:40:02.949Z,99.99
2018-10-17T03:41:03.144Z,99.99
2018-10-17T03:42:03.133Z,99.99
2018-10-17T03:43:03.294Z,99.99
2018-10-17T03:44:03.305Z,99.99
2018-10-17T03:45:03.392Z,99.99
2018-10-17T03:46:03.485Z,99.99
2018-10-17T03:47:03.608Z,99.99
2018-10-17T03:48:03.662Z,99.99
2018-10-17T03:49:03.781Z,99.99
2018-10-17T03:50:03.848Z,99.99
2018-10-17T03:51:03.941Z,99.99
2018-10-17T03:52:04.033Z,99.99
2018-10-17T03:53:04.148Z,99.99
2018-10-17T03:54:04.211Z,99.99
2018-10-17T03:55:04.365Z,99.99
2018-10-17T03:56:04.407Z,99.99
2018-10-17T03:57:04.475Z,99.99
2018-10-17T03:58:04.567Z,99.99
2018-10-17T03:59:04.743Z,99.99
2018-10-17T04:00:04.762Z,99.99
2018-10-17T04:01:04.852Z,99.99
2018-10-17T04:02:04.928Z,99.99
2018-10-17T04:03:05.092Z,99.99
2018-10-17T04:04:05.111Z,99.99
2018-10-17T04:05:05.248Z,99.99
2018-10-17T04:06:05.294Z,99.99
2018-10-17T04:07:05.475Z,99.99
2018-10-17T04:08:05.476Z,99.99
2018-10-17T04:09:05.573Z,99.99
2018-10-17T04:10:05.663Z,99.99
2018-10-17T04:11:05.833Z,99.99
2018-10-17T04:12:05.842Z,99.99
2018-10-17T04:13:05.978Z,99.99
2018-10-17T04:14:06.023Z,99.99
2018-10-17T04:15:06.114Z,99.99
2018-10-17T04:16:06.208Z,99.99
2018-10-17T04:17:06.343Z,99.99
2018-10-17T04:18:06.385Z,99.99
2018-10-17T04:19:06.485Z,99.99
2018-10-17T04:20:06.574Z,99.99
2018-10-17T04:21:06.657Z,99.99
2018-10-17T04:22:06.749Z,99.99
2018-10-17T04:23:06.904Z,99.99
2018-10-17T04:24:06.930Z,99.99
2018-10-17T04:25:07.030Z,99.99
2018-10-17T04:26:07.117Z,99.99
2018-10-17T04:27:07.202Z,99.99
2018-10-17T04:28:07.294Z,99.99
2018-10-17T04:29:07.408Z,99.99
2018-10-17T04:30:07.478Z,99.99
2018-10-17T04:31:07.585Z,99.99
2018-10-17T04:32:07.665Z,99.99
2018-10-17T04:33:07.758Z,99.99
2018-10-17T04:34:07.860Z,99.99
2018-10-17T04:35:07.980Z,99.99
2018-10-17T04:36:08.100Z,99.99
2018-10-17T04:37:08.228Z,99.99
2018-10-17T04:38:08.225Z,99.99
2018-10-17T04:39:08.317Z,99.99
2018-10-17T04:40:08.408Z,99.99
2018-10-17T04:41:08.546Z,99.99
2018-10-17T04:42:08.585Z,99.99
2018-10-17T04:43:08.735Z,99.99
2018-10-17T04:44:08.843Z,99.99
2018-10-17T04:45:08.811Z,99.99
2018-10-17T04:46:08.903Z,99.99
2018-10-17T04:47:09.059Z,99.99
2018-10-17T04:48:09.089Z,99.99
2018-10-17T04:49:09.223Z,99.99
2018-10-17T04:50:09.265Z,99.99
2018-10-17T04:51:09.358Z,99.99
2018-10-17T04:52:09.448Z,99.99
2018-10-17T04:53:09.590Z,99.99
2018-10-17T04:54:09.627Z,99.99
2018-10-17T04:55:09.764Z,99.99
2018-10-17T04:56:09.816Z,99.99
2018-10-17T04:57:09.903Z,99.99
2018-10-17T04:58:09.992Z,99.99
2018-10-17T04:59:10.250Z,99.99
2018-10-17T05:00:10.219Z,99.99
2018-10-17T05:01:10.305Z,99.99
2018-10-17T05:02:10.428Z,99.99
2018-10-17T05:03:10.469Z,99.99
2018-10-17T05:04:10.566Z,99.99
2018-10-17T05:05:10.744Z,99.99
2018-10-17T05:06:10.740Z,99.99
2018-10-17T05:07:10.858Z,99.99
2018-10-17T05:08:10.912Z,99.99
2018-10-17T05:09:10.998Z,99.99
2018-10-17T05:10:11.095Z,99.99
2018-10-17T05:11:11.281Z,99.99
2018-10-17T05:12:11.265Z,99.99
2018-10-17T05:13:11.486Z,99.99
2018-10-17T05:14:11.470Z,99.99
2018-10-17T05:15:11.596Z,99.99
2018-10-17T05:16:11.647Z,99.99
2018-10-17T05:17:11.817Z,99.99
2018-10-17T05:18:11.830Z,99.99
2018-10-17T05:19:11.945Z,99.99
2018-10-17T05:20:12.042Z,99.99
2018-10-17T05:21:12.113Z,99.99
2018-10-17T05:22:12.205Z,99.99
2018-10-17T05:23:12.335Z,99.99
2018-10-17T05:24:12.384Z,99.99
2018-10-17T05:25:12.503Z,99.99
2018-10-17T05:26:12.568Z,99.99
2018-10-17T05:27:12.660Z,99.99
2018-10-17T05:28:12.751Z,99.99
2018-10-17T05:29:12.959Z,99.99
2018-10-17T05:30:12.933Z,99.99
2018-10-17T05:31:13.077Z,99.99
2018-10-17T05:32:13.117Z,99.99
2018-10-17T05:33:13.211Z,99.99
2018-10-17T05:34:13.299Z,99.99
2018-10-17T05:35:13.476Z,99.99
2018-10-17T05:36:13.484Z,99.99
2018-10-17T05:37:13.738Z,99.99
2018-10-17T05:38:13.671Z,99.99
2018-10-17T05:39:13.765Z,99.99
2018-10-17T05:40:13.852Z,99.99
2018-10-17T05:41:13.994Z,99.99
2018-10-17T05:42:14.035Z,99.99
2018-10-17T05:43:14.175Z,99.99
2018-10-17T05:44:14.245Z,99.99
2018-10-17T05:45:14.315Z,99.99
2018-10-17T05:46:14.405Z,99.99
2018-10-17T05:47:14.559Z,99.99
2018-10-17T05:48:14.586Z,99.99
2018-10-17T05:49:14.754Z,99.99
2018-10-17T05:50:14.784Z,99.99
2018-10-17T05:51:14.876Z,99.99
2018-10-17T05:52:14.969Z,99.99
2018-10-17T05:53:15.154Z,99.99
2018-10-17T05:54:15.152Z,99.99
2018-10-17T05:55:15.298Z,99.99
2018-10-17T05:56:15.335Z,99.99
2018-10-17T05:57:15.425Z,99.99
2018-10-17T05:58:15.515Z,99.99
2018-10-17T05:59:15.670Z,99.99
2018-10-17T06:00:15.698Z,99.99
2018-10-17T06:01:15.920Z,99.99
2018-10-17T06:02:15.959Z,99.99
2018-10-17T06:03:15.977Z,99.99
2018-10-17T06:04:16.066Z,99.99
2018-10-17T06:05:16.251Z,99.99
2018-10-17T06:06:16.246Z,99.99
2018-10-17T06:07:16.341Z,99.99
2018-10-17T06:08:16.431Z,99.99
2018-10-17T06:09:16.523Z,99.99
2018-10-17T06:10:16.628Z,99.99
2018-10-17T06:11:16.770Z,99.99
2018-10-17T06:12:16.816Z,99.99
2018-10-17T06:13:16.931Z,99.99
2018-10-17T06:14:16.977Z,99.99
2018-10-17T06:15:17.068Z,99.99
2018-10-17T06:16:17.147Z,99.99
2018-10-17T06:17:17.246Z,99.99
2018-10-17T06:18:17.325Z,99.99
2018-10-17T06:19:17.420Z,99.99
2018-10-17T06:20:17.512Z,99.99
2018-10-17T06:21:17.599Z,99.99
2018-10-17T06:22:17.690Z,99.99
2018-10-17T06:23:17.783Z,99.99
2018-10-17T06:24:17.877Z,99.99
2018-10-17T06:25:17.972Z,99.99
2018-10-17T06:26:18.060Z,99.99
2018-10-17T06:27:18.152Z,99.99
2018-10-17T06:28:18.322Z,99.99
2018-10-17T06:29:18.347Z,99.99
2018-10-17T06:30:18.439Z,99.99
2018-10-17T06:31:18.601Z,99.99
2018-10-17T06:32:18.622Z,99.99
2018-10-17T06:33:18.712Z,99.99
2018-10-17T06:34:18.815Z,99.99
2018-10-17T06:35:18.957Z,99.99
2018-10-17T06:36:18.983Z,99.99
2018-10-17T06:37:19.157Z,99.99
2018-10-17T06:38:19.163Z,99.99
2018-10-17T06:39:19.259Z,99.99
2018-10-17T06:40:19.346Z,99.99
2018-10-17T06:41:19.444Z,99.99
2018-10-17T06:42:19.531Z,99.99
2018-10-17T06:43:19.653Z,99.99
2018-10-17T06:44:19.712Z,99.99
2018-10-17T06:45:19.805Z,99.99
2018-10-17T06:46:19.894Z,99.99
2018-10-17T06:47:20.056Z,99.99
2018-10-17T06:48:20.077Z,99.99
2018-10-17T06:49:20.345Z,99.99
2018-10-17T06:50:20.262Z,99.99
2018-10-17T06:51:20.381Z,99.99
2018-10-17T06:52:20.452Z,99.99
2018-10-17T06:53:20.541Z,99.99
2018-10-17T06:54:20.688Z,99.99
2018-10-17T06:55:20.714Z,99.99
2018-10-17T06:56:20.805Z,99.99
2018-10-17T06:57:20.896Z,99.99
2018-10-17T06:58:20.989Z,99.99
2018-10-17T06:59:21.082Z,99.99
2018-10-17T07:00:21.177Z,99.99
2018-10-17T07:01:21.266Z,99.99
2018-10-17T07:02:21.370Z,99.99
2018-10-17T07:03:21.447Z,99.99
2018-10-17T07:04:21.540Z,99.99
2018-10-17T07:05:21.633Z,99.99
2018-10-17T07:06:21.724Z,99.99
2018-10-17T07:07:21.889Z,99.99
2018-10-17T07:08:21.944Z,99.99
2018-10-17T07:09:22.004Z,99.99
2018-10-17T07:10:22.088Z,99.99
2018-10-17T07:11:22.297Z,99.99
2018-10-17T07:12:22.270Z,99.99
2018-10-17T07:13:22.452Z,99.99
2018-10-17T07:14:22.445Z,99.99
2018-10-17T07:15:22.548Z,99.99
2018-10-17T07:16:22.631Z,99.99
2018-10-17T07:17:22.733Z,99.99
2018-10-17T07:18:22.821Z,99.99
2018-10-17T07:19:22.907Z,99.99
2018-10-17T07:20:23.003Z,99.99
2018-10-17T07:21:23.106Z,99.99
2018-10-17T07:22:23.180Z,99.99
2018-10-17T07:23:23.271Z,99.99
2018-10-17T07:24:23.362Z,99.89
2018-10-17T07:25:23.456Z,99.95
2018-10-17T07:26:34.146Z,99.70
2018-10-17T07:27:23.621Z,99.95
2018-10-17T07:28:23.706Z,99.99
2018-10-17T07:29:23.921Z,99.99
2018-10-17T07:30:23.892Z,99.75
2018-10-17T07:31:23.981Z,99.95
2018-10-17T07:32:24.077Z,99.66
2018-10-17T07:33:24.164Z,99.95
2018-10-17T07:34:24.250Z,99.95
2018-10-17T07:35:24.350Z,99.95
2018-10-17T07:36:24.442Z,99.99
2018-10-17T07:37:24.532Z,99.99
2018-10-17T07:38:24.624Z,99.56
2018-10-17T07:39:24.720Z,99.46
2018-10-17T07:40:24.827Z,99.37
2018-10-17T07:41:24.921Z,99.56
2018-10-17T07:42:25.013Z,99.95
2018-10-17T07:43:25.106Z,99.95
2018-10-17T07:44:25.196Z,99.99
2018-10-17T07:45:25.290Z,99.37
2018-10-17T07:46:25.377Z,99.85
2018-10-17T07:47:25.463Z,99.75
2018-10-17T07:48:25.564Z,99.23
2018-10-17T07:49:25.652Z,98.75
2018-10-17T07:50:25.747Z,98.99
2018-10-17T07:51:25.836Z,98.94
2018-10-17T07:52:25.925Z,98.42
2018-10-17T07:53:26.041Z,99.04
2018-10-17T07:54:26.107Z,98.47
2018-10-17T07:55:26.201Z,98.70
2018-10-17T07:56:26.299Z,98.66
2018-10-17T07:57:26.387Z,98.66
2018-10-17T07:58:26.481Z,98.08
2018-10-17T07:59:26.575Z,98.47
2018-10-17T08:00:26.714Z,98.47
2018-10-17T08:01:26.758Z,98.94
2018-10-17T08:02:26.847Z,98.85
2018-10-17T08:03:26.939Z,99.04
2018-10-17T08:04:27.031Z,98.85
2018-10-17T08:05:27.131Z,98.85
2018-10-17T08:06:27.244Z,99.04
2018-10-17T08:07:27.313Z,98.27
2018-10-17T08:08:27.403Z,97.99
2018-10-17T08:09:27.495Z,98.37
2018-10-17T08:10:27.589Z,98.47
2018-10-17T08:11:27.680Z,98.37
2018-10-17T08:12:27.784Z,98.08
2018-10-17T08:13:27.875Z,97.89
2018-10-17T08:14:27.966Z,97.42
2018-10-17T08:15:28.064Z,97.51
2018-10-17T08:16:28.154Z,97.61
2018-10-17T08:17:28.248Z,97.56
2018-10-17T08:18:28.339Z,97.32
2018-10-17T08:19:28.427Z,97.47
2018-10-17T08:20:28.525Z,97.08
2018-10-17T08:21:28.688Z,96.70
2018-10-17T08:22:28.708Z,96.42
2018-10-17T08:23:28.798Z,96.56
2018-10-17T08:24:28.893Z,97.27
2018-10-17T08:25:29.006Z,97.27
2018-10-17T08:26:29.097Z,96.80
2018-10-17T08:27:29.273Z,96.61
2018-10-17T08:28:29.281Z,96.89
2018-10-17T08:29:29.374Z,96.89
2018-10-17T08:30:29.466Z,96.51
2018-10-17T08:31:29.562Z,96.89
2018-10-17T08:32:29.654Z,96.22
2018-10-17T08:33:29.746Z,96.80
2018-10-17T08:34:29.837Z,96.42
2018-10-17T08:35:30.112Z,96.51
2018-10-17T08:36:30.316Z,96.80
2018-10-17T08:37:30.682Z,96.89
2018-10-17T08:38:30.260Z,96.70
2018-10-17T08:39:30.352Z,96.46
2018-10-17T08:40:30.442Z,95.98
2018-10-17T08:41:30.535Z,95.94
2018-10-17T08:42:30.624Z,95.84
2018-10-17T08:43:30.719Z,96.27
2018-10-17T08:44:30.814Z,96.17
2018-10-17T08:45:30.912Z,95.03
2018-10-17T08:46:31.003Z,95.61
2018-10-17T08:47:31.099Z,95.51
2018-10-17T08:48:31.190Z,95.03
2018-10-17T08:49:31.281Z,94.65
2018-10-17T08:50:31.391Z,94.07
2018-10-17T08:51:31.470Z,93.60
2018-10-17T08:52:31.568Z,92.83
2018-10-17T08:53:31.661Z,92.93
2018-10-17T08:54:31.752Z,92.50
2018-10-17T08:55:31.845Z,93.16
2018-10-17T08:56:31.939Z,92.50
2018-10-17T08:57:32.030Z,92.88
2018-10-17T08:58:32.126Z,92.69
2018-10-17T08:59:32.223Z,92.30
2018-10-17T09:00:32.310Z,92.88
2018-10-17T09:01:32.405Z,92.88
2018-10-17T09:02:32.494Z,92.88
2018-10-17T09:03:32.589Z,92.50
2018-10-17T09:04:32.680Z,92.59
2018-10-17T09:05:32.774Z,91.93
2018-10-17T09:06:32.864Z,92.50
2018-10-17T09:07:33.015Z,92.69
2018-10-17T09:08:33.054Z,91.93
2018-10-17T09:09:33.150Z,91.93
2018-10-17T09:10:33.240Z,92.11
2018-10-17T09:11:33.343Z,92.21
2018-10-17T09:12:33.436Z,92.88
2018-10-17T09:13:33.580Z,93.16
2018-10-17T09:14:33.618Z,92.64
2018-10-17T09:15:38.377Z,92.07
2018-10-17T09:16:33.849Z,92.40
2018-10-17T09:17:33.898Z,92.69
2018-10-17T09:18:33.994Z,92.35
2018-10-17T09:19:34.181Z,92.83
2018-10-17T09:20:34.333Z,93.21
2018-10-17T09:21:34.645Z,93.21
2018-10-17T09:22:34.416Z,93.31
2018-10-17T09:23:34.460Z,92.83
2018-10-17T09:24:34.548Z,92.64
2018-10-17T09:25:34.717Z,92.64
2018-10-17T09:26:34.751Z,91.88
2018-10-17T09:27:34.844Z,92.07
2018-10-17T09:28:34.935Z,92.16
2018-10-17T09:29:35.031Z,91.97
2018-10-17T09:30:35.156Z,92.45
2018-10-17T09:31:35.218Z,92.74
2018-10-17T09:32:35.312Z,93.21
2018-10-17T09:33:35.409Z,93.88
2018-10-17T09:34:35.496Z,94.55
2018-10-17T09:35:35.605Z,94.17
2018-10-17T09:36:35.690Z,94.46
2018-10-17T09:37:35.768Z,94.46
2018-10-17T09:38:35.860Z,94.17
2018-10-17T09:39:35.954Z,94.93
2018-10-17T09:40:36.048Z,94.84
2018-10-17T09:41:36.146Z,94.65
2018-10-17T09:42:36.236Z,95.22
2018-10-17T09:43:36.382Z,94.17
2018-10-17T09:44:36.437Z,94.50
2018-10-17T09:45:36.528Z,93.74
2018-10-17T09:46:36.621Z,92.88
2018-10-17T09:47:36.713Z,92.49
2018-10-17T09:48:36.809Z,92.49
2018-10-17T09:49:36.902Z,93.07
2018-10-17T09:50:36.998Z,92.11
2018-10-17T09:51:37.094Z,92.40
2018-10-17T09:52:37.183Z,92.35
2018-10-17T09:53:37.279Z,92.54
2018-10-17T09:54:37.372Z,91.68
2018-10-17T09:55:37.466Z,91.49
2018-10-17T09:56:37.573Z,90.34
2018-10-17T09:57:37.672Z,89.95
2018-10-17T09:58:37.760Z,89.95
2018-10-17T09:59:37.853Z,89.95
2018-10-17T10:00:37.947Z,89.76
2018-10-17T10:01:38.047Z,90.24
2018-10-17T10:02:38.140Z,90.34
2018-10-17T10:03:38.233Z,89.90
2018-10-17T10:04:38.318Z,90.19
2018-10-17T10:05:38.411Z,90.39
2018-10-17T10:06:38.501Z,90.19
2018-10-17T10:07:38.605Z,89.81
2018-10-17T10:08:38.695Z,89.90
2018-10-17T10:09:38.789Z,89.90
2018-10-17T10:10:38.883Z,89.90
2018-10-17T10:11:38.978Z,89.90
2018-10-17T10:12:39.077Z,89.81
2018-10-17T10:13:39.168Z,90.09
2018-10-17T10:14:39.266Z,89.90
2018-10-17T10:15:39.360Z,89.90
2018-10-17T10:16:39.454Z,89.66
2018-10-17T10:17:39.613Z,89.37
2018-10-17T10:18:39.648Z,89.47
2018-10-17T10:19:39.737Z,89.47
2018-10-17T10:20:39.828Z,89.37
2018-10-17T10:21:39.929Z,89.37
2018-10-17T10:22:40.028Z,89.18
2018-10-17T10:23:40.182Z,88.99
2018-10-17T10:24:40.226Z,88.90
2018-10-17T10:25:40.306Z,88.32
2018-10-17T10:26:40.397Z,88.42
2018-10-17T10:27:40.493Z,88.37
2018-10-17T10:28:40.627Z,88.37
2018-10-17T10:29:40.721Z,87.98
2018-10-17T10:30:40.774Z,88.17
2018-10-17T10:31:40.867Z,88.17
2018-10-17T10:32:40.969Z,88.08
2018-10-17T10:33:41.061Z,87.35
2018-10-17T10:34:41.142Z,87.16
2018-10-17T10:35:41.242Z,86.97
2018-10-17T10:36:41.340Z,86.97
2018-10-17T10:37:41.433Z,86.97
2018-10-17T10:38:41.528Z,86.97
2018-10-17T10:39:41.621Z,86.58
2018-10-17T10:40:41.742Z,86.78
2018-10-17T10:41:41.807Z,86.11
2018-10-17T10:42:41.906Z,86.05
2018-10-17T10:43:42.057Z,86.63
2018-10-17T10:44:42.094Z,86.54
2018-10-17T10:45:42.281Z,86.15
2018-10-17T10:46:42.283Z,85.77
2018-10-17T10:47:42.378Z,85.58
2018-10-17T10:48:42.474Z,85.67
2018-10-17T10:49:42.567Z,85.28
2018-10-17T10:50:42.663Z,85.67
2018-10-17T10:51:42.797Z,85.77
2018-10-17T10:52:42.907Z,85.33
2018-10-17T10:53:42.950Z,84.85
2018-10-17T10:54:43.045Z,85.81
2018-10-17T10:55:43.136Z,84.95
2018-10-17T10:56:43.233Z,85.14
2018-10-17T10:57:43.330Z,85.24
2018-10-17T10:58:43.472Z,85.08
2018-10-17T10:59:43.579Z,84.89
2018-10-17T11:00:43.617Z,84.22
2018-10-17T11:01:43.715Z,83.84
2018-10-17T11:02:43.808Z,83.16
2018-10-17T11:03:43.902Z,83.16
2018-10-17T11:04:44.109Z,82.87
2018-10-17T11:05:44.348Z,83.26
2018-10-17T11:06:44.192Z,83.30
2018-10-17T11:07:44.288Z,82.63
2018-10-17T11:08:44.388Z,82.92
2018-10-17T11:09:44.474Z,82.82
2018-10-17T11:10:44.573Z,81.86
2018-10-17T11:11:44.660Z,82.05
2018-10-17T11:12:44.760Z,82.09
2018-10-17T11:13:44.883Z,82.38
2018-10-17T11:14:45.090Z,81.96
2018-10-17T11:15:45.053Z,81.42
2018-10-17T11:16:45.147Z,81.23
2018-10-17T11:17:45.239Z,80.84
2018-10-17T11:18:45.341Z,80.94
2018-10-17T11:19:45.444Z,80.84
2018-10-17T11:20:45.529Z,79.98
2018-10-17T11:21:45.643Z,80.98
2018-10-17T11:22:45.723Z,80.88
2018-10-17T11:23:45.819Z,79.44
2018-10-17T11:24:45.926Z,79.25
2018-10-17T11:25:46.016Z,79.25
2018-10-17T11:26:46.108Z,79.35
2018-10-17T11:27:46.207Z,78.67
2018-10-17T11:28:46.300Z,78.77
2018-10-17T11:29:46.395Z,78.42
2018-10-17T11:30:46.492Z,78.33
2018-10-17T11:31:46.707Z,78.13
2018-10-17T11:32:46.692Z,77.84
2018-10-17T11:33:46.793Z,77.56
2018-10-17T11:34:46.885Z,77.75
2018-10-17T11:35:46.970Z,77.65
2018-10-17T11:36:47.064Z,77.01
2018-10-17T11:37:47.190Z,76.92
2018-10-17T11:38:47.259Z,77.21
2018-10-17T11:39:47.352Z,76.73
2018-10-17T11:40:47.555Z,75.76
2018-10-17T11:41:47.557Z,76.15
2018-10-17T11:42:47.648Z,75.96
2018-10-17T11:43:47.744Z,75.48
2018-10-17T11:44:47.840Z,75.09
2018-10-17T11:45:47.937Z,74.32
2018-10-17T11:46:48.070Z,74.26
2018-10-17T11:47:48.192Z,74.61
2018-10-17T11:48:48.230Z,74.93
2018-10-17T11:49:48.324Z,74.36
2018-10-17T11:50:48.425Z,74.16
2018-10-17T11:51:48.525Z,74.07
2018-10-17T11:52:48.616Z,73.20
2018-10-17T11:53:48.717Z,73.39
2018-10-17T11:54:48.810Z,73.14
2018-10-17T11:55:48.909Z,74.01
2018-10-17T11:56:49.013Z,74.30
2018-10-17T11:57:49.108Z,73.05
2018-10-17T11:58:49.202Z,72.95
2018-10-17T11:59:49.390Z,72.75
2018-10-17T12:00:49.398Z,72.47
2018-10-17T12:01:49.494Z,71.92
2018-10-17T12:02:49.594Z,72.21
2018-10-17T12:03:49.830Z,71.92
2018-10-17T12:04:49.926Z,71.64
2018-10-17T12:05:49.983Z,72.02
2018-10-17T12:06:49.986Z,71.83
2018-10-17T12:07:50.083Z,70.96
2018-10-17T12:08:50.200Z,70.57
2018-10-17T12:09:50.298Z,70.28
2018-10-17T12:10:50.398Z,71.34
2018-10-17T12:11:50.545Z,70.96
2018-10-17T12:12:50.585Z,70.80
2018-10-17T12:13:50.686Z,70.57
2018-10-17T12:14:50.780Z,70.80
2018-10-17T12:15:50.874Z,70.32
2018-10-17T12:16:50.984Z,70.28
2018-10-17T12:17:51.084Z,70.61
2018-10-17T12:18:51.182Z,70.51
2018-10-17T12:19:51.517Z,70.80
2018-10-17T12:20:51.405Z,71.19
2018-10-17T12:21:51.451Z,71.38
2018-10-17T12:22:51.542Z,71.09
2018-10-17T12:23:51.649Z,71.38
2018-10-17T12:24:51.748Z,71.38
2018-10-17T12:25:51.847Z,71.28
2018-10-17T12:26:51.957Z,71.00
2018-10-17T12:27:52.065Z,71.09
2018-10-17T12:28:52.217Z,71.09
2018-10-17T12:29:52.305Z,70.80
2018-10-17T12:30:52.344Z,71.00
2018-10-17T12:31:52.433Z,70.80
2018-10-17T12:32:52.575Z,70.80
2018-10-17T12:33:52.634Z,71.00
2018-10-17T12:34:52.752Z,71.00
2018-10-17T12:35:52.840Z,70.64
2018-10-17T12:36:52.944Z,70.90
2018-10-17T12:37:53.041Z,70.16
2018-10-17T12:38:53.166Z,69.29
2018-10-17T12:39:53.352Z,69.45
2018-10-17T12:40:53.476Z,69.58
2018-10-17T12:41:53.436Z,69.10
2018-10-17T12:42:53.548Z,69.39
2018-10-17T12:43:53.663Z,67.75
2018-10-17T12:44:53.754Z,68.04
2018-10-17T12:45:53.840Z,68.71
2018-10-17T12:46:53.992Z,68.81
2018-10-17T12:47:54.034Z,68.52
2018-10-17T12:48:54.148Z,68.52
2018-10-17T12:49:54.278Z,68.43
2018-10-17T12:50:54.340Z,68.43
2018-10-17T12:51:54.466Z,68.52
2018-10-17T12:52:54.636Z,68.23
2018-10-17T12:53:54.638Z,68.43